sensor_id;sensor_type;location;lat;lon;timestamp;P1;durP1;ratioP1;P2;durP2;ratioP2
8909;SDS011;4490;49.072;8.804;2022-08-04T00:01:03;4.45;;;2.30;;
8909;SDS011;4490;49.072;8.804;2022-08-04T00:03:39;2.70;;;2.40;;
8909;SDS011;4490;49.072;8.804;2022-08-04T00:11:20;3.40;;;2.50;;
8909;SDS011;4490;49.072;8.804;2022-08-04T00:13:56;4.75;;;2.58;;
8909;SDS011;4490;49.072;8.804;2022-08-04T00:16:28;2.67;;;2.47;;
8909;SDS011;4490;49.072;8.804;2022-08-04T00:18:57;3.13;;;2.05;;
8909;SDS011;4490;49.072;8.804;2022-08-04T00:21:27;3.45;;;2.42;;
8909;SDS011;4490;49.072;8.804;2022-08-04T00:23:59;2.60;;;2.40;;
8909;SDS011;4490;49.072;8.804;2022-08-04T00:26:26;3.30;;;2.45;;
8909;SDS011;4490;49.072;8.804;2022-08-04T00:28:52;2.83;;;2.50;;
8909;SDS011;4490;49.072;8.804;2022-08-04T00:31:17;2.50;;;2.30;;
8909;SDS011;4490;49.072;8.804;2022-08-04T00:33:44;4.13;;;2.63;;
8909;SDS011;4490;49.072;8.804;2022-08-04T00:36:11;3.28;;;2.25;;
8909;SDS011;4490;49.072;8.804;2022-08-04T00:38:39;3.10;;;2.60;;
8909;SDS011;4490;49.072;8.804;2022-08-04T00:54:52;2.85;;;2.63;;
8909;SDS011;4490;49.072;8.804;2022-08-04T00:57:50;3.75;;;2.53;;
8909;SDS011;4490;49.072;8.804;2022-08-04T01:00:47;2.95;;;2.75;;
8909;SDS011;4490;49.072;8.804;2022-08-04T01:12:17;2.50;;;2.30;;
8909;SDS011;4490;49.072;8.804;2022-08-04T01:17:51;3.60;;;2.30;;
8909;SDS011;4490;49.072;8.804;2022-08-04T01:20:33;2.75;;;2.30;;
8909;SDS011;4490;49.072;8.804;2022-08-04T01:23:28;2.45;;;2.13;;
8909;SDS011;4490;49.072;8.804;2022-08-04T01:31:54;2.35;;;2.13;;
8909;SDS011;4490;49.072;8.804;2022-08-04T01:34:35;2.50;;;2.10;;
8909;SDS011;4490;49.072;8.804;2022-08-04T01:37:24;2.67;;;2.47;;
8909;SDS011;4490;49.072;8.804;2022-08-04T01:40:25;2.35;;;2.15;;
8909;SDS011;4490;49.072;8.804;2022-08-04T01:42:52;2.10;;;2.00;;
8909;SDS011;4490;49.072;8.804;2022-08-04T01:45:19;3.35;;;2.58;;
8909;SDS011;4490;49.072;8.804;2022-08-04T01:47:49;3.03;;;2.30;;
8909;SDS011;4490;49.072;8.804;2022-08-04T01:50:16;4.88;;;2.25;;
8909;SDS011;4490;49.072;8.804;2022-08-04T01:52:43;3.25;;;2.00;;
8909;SDS011;4490;49.072;8.804;2022-08-04T01:55:10;2.42;;;2.13;;
8909;SDS011;4490;49.072;8.804;2022-08-04T01:57:50;2.80;;;2.20;;
8909;SDS011;4490;49.072;8.804;2022-08-04T02:00:18;2.40;;;2.20;;
8909;SDS011;4490;49.072;8.804;2022-08-04T02:02:45;2.75;;;2.15;;
8909;SDS011;4490;49.072;8.804;2022-08-04T02:05:12;2.30;;;2.10;;
8909;SDS011;4490;49.072;8.804;2022-08-04T02:13:02;2.70;;;2.25;;
8909;SDS011;4490;49.072;8.804;2022-08-04T02:19:01;2.30;;;2.13;;
8909;SDS011;4490;49.072;8.804;2022-08-04T02:21:47;2.40;;;2.20;;
8909;SDS011;4490;49.072;8.804;2022-08-04T02:24:19;2.65;;;2.30;;
8909;SDS011;4490;49.072;8.804;2022-08-04T02:26:51;4.05;;;2.40;;
8909;SDS011;4490;49.072;8.804;2022-08-04T02:29:25;3.35;;;2.95;;
8909;SDS011;4490;49.072;8.804;2022-08-04T02:32:35;2.53;;;2.33;;
8909;SDS011;4490;49.072;8.804;2022-08-04T02:35:07;2.58;;;2.38;;
8909;SDS011;4490;49.072;8.804;2022-08-04T02:37:39;2.40;;;2.20;;
8909;SDS011;4490;49.072;8.804;2022-08-04T02:40:14;3.20;;;2.30;;
8909;SDS011;4490;49.072;8.804;2022-08-04T02:42:44;3.17;;;2.60;;
8909;SDS011;4490;49.072;8.804;2022-08-04T02:45:11;3.10;;;2.30;;
8909;SDS011;4490;49.072;8.804;2022-08-04T02:47:37;3.50;;;2.17;;
8909;SDS011;4490;49.072;8.804;2022-08-04T02:50:04;3.90;;;2.28;;
8909;SDS011;4490;49.072;8.804;2022-08-04T02:52:32;4.20;;;2.40;;
8909;SDS011;4490;49.072;8.804;2022-08-04T02:54:59;4.18;;;2.28;;
8909;SDS011;4490;49.072;8.804;2022-08-04T02:57:28;2.38;;;2.17;;
8909;SDS011;4490;49.072;8.804;2022-08-04T03:05:20;4.82;;;2.72;;
8909;SDS011;4490;49.072;8.804;2022-08-04T03:08:03;3.00;;;2.55;;
8909;SDS011;4490;49.072;8.804;2022-08-04T03:35:15;5.32;;;2.65;;
8909;SDS011;4490;49.072;8.804;2022-08-04T03:46:11;2.47;;;2.25;;
8909;SDS011;4490;49.072;8.804;2022-08-04T03:52:11;2.90;;;2.47;;
8909;SDS011;4490;49.072;8.804;2022-08-04T04:01:33;3.45;;;2.90;;
8909;SDS011;4490;49.072;8.804;2022-08-04T04:04:37;3.95;;;3.20;;
8909;SDS011;4490;49.072;8.804;2022-08-04T04:07:37;4.47;;;3.13;;
8909;SDS011;4490;49.072;8.804;2022-08-04T04:10:34;4.97;;;3.25;;
8909;SDS011;4490;49.072;8.804;2022-08-04T04:13:46;3.70;;;2.80;;
8909;SDS011;4490;49.072;8.804;2022-08-04T04:30:24;2.63;;;2.40;;
8909;SDS011;4490;49.072;8.804;2022-08-04T04:52:44;2.97;;;2.40;;
8909;SDS011;4490;49.072;8.804;2022-08-04T04:57:49;3.75;;;2.33;;
8909;SDS011;4490;49.072;8.804;2022-08-04T05:00:16;2.55;;;2.20;;
8909;SDS011;4490;49.072;8.804;2022-08-04T05:02:54;4.35;;;2.67;;
8909;SDS011;4490;49.072;8.804;2022-08-04T05:13:37;2.95;;;2.65;;
8909;SDS011;4490;49.072;8.804;2022-08-04T05:16:07;3.60;;;2.60;;
8909;SDS011;4490;49.072;8.804;2022-08-04T05:18:41;4.07;;;2.80;;
8909;SDS011;4490;49.072;8.804;2022-08-04T05:24:18;4.43;;;2.55;;
8909;SDS011;4490;49.072;8.804;2022-08-04T05:26:47;4.55;;;2.80;;
8909;SDS011;4490;49.072;8.804;2022-08-04T05:29:25;3.30;;;2.90;;
8909;SDS011;4490;49.072;8.804;2022-08-04T05:32:15;5.05;;;2.67;;
8909;SDS011;4490;49.072;8.804;2022-08-04T05:34:44;4.72;;;2.80;;
8909;SDS011;4490;49.072;8.804;2022-08-04T05:37:18;3.47;;;2.92;;
8909;SDS011;4490;49.072;8.804;2022-08-04T05:39:51;3.25;;;2.55;;
8909;SDS011;4490;49.072;8.804;2022-08-04T05:42:21;3.05;;;2.65;;
8909;SDS011;4490;49.072;8.804;2022-08-04T05:44:47;4.20;;;3.00;;
8909;SDS011;4490;49.072;8.804;2022-08-04T05:47:13;3.47;;;3.10;;
8909;SDS011;4490;49.072;8.804;2022-08-04T05:49:40;4.82;;;2.53;;
8909;SDS011;4490;49.072;8.804;2022-08-04T05:52:07;9.73;;;3.08;;
8909;SDS011;4490;49.072;8.804;2022-08-04T05:54:35;3.42;;;3.03;;
8909;SDS011;4490;49.072;8.804;2022-08-04T05:57:03;7.85;;;2.58;;
8909;SDS011;4490;49.072;8.804;2022-08-04T05:59:30;3.83;;;2.83;;
8909;SDS011;4490;49.072;8.804;2022-08-04T06:01:59;4.15;;;2.90;;
8909;SDS011;4490;49.072;8.804;2022-08-04T06:04:30;2.65;;;2.45;;
8909;SDS011;4490;49.072;8.804;2022-08-04T06:07:07;5.22;;;2.60;;
8909;SDS011;4490;49.072;8.804;2022-08-04T06:09:35;3.33;;;2.53;;
8909;SDS011;4490;49.072;8.804;2022-08-04T06:12:02;4.40;;;2.85;;
8909;SDS011;4490;49.072;8.804;2022-08-04T06:14:32;3.17;;;2.88;;
8909;SDS011;4490;49.072;8.804;2022-08-04T06:17:03;3.10;;;2.75;;
8909;SDS011;4490;49.072;8.804;2022-08-04T06:19:32;4.22;;;2.42;;
8909;SDS011;4490;49.072;8.804;2022-08-04T06:22:01;3.63;;;2.60;;
8909;SDS011;4490;49.072;8.804;2022-08-04T06:24:28;3.67;;;2.67;;
8909;SDS011;4490;49.072;8.804;2022-08-04T06:26:57;3.25;;;2.70;;
8909;SDS011;4490;49.072;8.804;2022-08-04T06:29:25;3.67;;;2.25;;
8909;SDS011;4490;49.072;8.804;2022-08-04T06:32:00;4.78;;;2.50;;
8909;SDS011;4490;49.072;8.804;2022-08-04T06:34:37;4.38;;;2.95;;
8909;SDS011;4490;49.072;8.804;2022-08-04T06:37:05;2.70;;;2.50;;
8909;SDS011;4490;49.072;8.804;2022-08-04T06:39:32;4.53;;;2.65;;
8909;SDS011;4490;49.072;8.804;2022-08-04T06:41:59;5.82;;;2.40;;
8909;SDS011;4490;49.072;8.804;2022-08-04T06:44:27;4.63;;;2.50;;
8909;SDS011;4490;49.072;8.804;2022-08-04T06:46:53;5.72;;;2.40;;
8909;SDS011;4490;49.072;8.804;2022-08-04T06:49:20;7.18;;;2.40;;
8909;SDS011;4490;49.072;8.804;2022-08-04T06:51:48;2.50;;;2.30;;
8909;SDS011;4490;49.072;8.804;2022-08-04T06:54:14;3.10;;;2.20;;
8909;SDS011;4490;49.072;8.804;2022-08-04T06:56:40;7.68;;;2.60;;
8909;SDS011;4490;49.072;8.804;2022-08-04T06:59:09;6.22;;;2.28;;
8909;SDS011;4490;49.072;8.804;2022-08-04T07:01:36;4.13;;;2.50;;
8909;SDS011;4490;49.072;8.804;2022-08-04T07:04:02;3.85;;;2.60;;
8909;SDS011;4490;49.072;8.804;2022-08-04T07:06:29;3.83;;;2.05;;
8909;SDS011;4490;49.072;8.804;2022-08-04T07:08:56;3.08;;;2.40;;
8909;SDS011;4490;49.072;8.804;2022-08-04T07:11:22;3.97;;;2.35;;
8909;SDS011;4490;49.072;8.804;2022-08-04T07:13:49;3.38;;;2.40;;
8909;SDS011;4490;49.072;8.804;2022-08-04T07:16:16;2.53;;;2.28;;
8909;SDS011;4490;49.072;8.804;2022-08-04T07:18:44;5.47;;;2.40;;
8909;SDS011;4490;49.072;8.804;2022-08-04T07:21:10;3.17;;;2.47;;
8909;SDS011;4490;49.072;8.804;2022-08-04T07:23:44;2.42;;;2.20;;
8909;SDS011;4490;49.072;8.804;2022-08-04T07:26:10;3.65;;;2.20;;
8909;SDS011;4490;49.072;8.804;2022-08-04T07:28:36;4.63;;;2.35;;
8909;SDS011;4490;49.072;8.804;2022-08-04T07:31:03;3.38;;;2.42;;
8909;SDS011;4490;49.072;8.804;2022-08-04T07:33:30;3.42;;;2.30;;
8909;SDS011;4490;49.072;8.804;2022-08-04T07:35:57;2.40;;;2.20;;
8909;SDS011;4490;49.072;8.804;2022-08-04T07:38:23;2.45;;;2.28;;
8909;SDS011;4490;49.072;8.804;2022-08-04T07:40:48;2.45;;;2.17;;
8909;SDS011;4490;49.072;8.804;2022-08-04T07:43:15;2.78;;;2.30;;
8909;SDS011;4490;49.072;8.804;2022-08-04T07:45:41;3.25;;;2.10;;
8909;SDS011;4490;49.072;8.804;2022-08-04T07:48:08;2.47;;;2.03;;
8909;SDS011;4490;49.072;8.804;2022-08-04T07:50:34;2.58;;;2.38;;
8909;SDS011;4490;49.072;8.804;2022-08-04T07:53:02;2.70;;;2.50;;
8909;SDS011;4490;49.072;8.804;2022-08-04T07:55:28;3.13;;;2.42;;
8909;SDS011;4490;49.072;8.804;2022-08-04T07:57:54;4.88;;;2.70;;
8909;SDS011;4490;49.072;8.804;2022-08-04T08:00:20;2.85;;;2.60;;
8909;SDS011;4490;49.072;8.804;2022-08-04T08:02:47;2.78;;;2.50;;
8909;SDS011;4490;49.072;8.804;2022-08-04T08:05:15;3.35;;;2.60;;
8909;SDS011;4490;49.072;8.804;2022-08-04T08:07:49;2.60;;;2.40;;
8909;SDS011;4490;49.072;8.804;2022-08-04T08:10:15;2.45;;;2.25;;
8909;SDS011;4490;49.072;8.804;2022-08-04T08:12:41;2.60;;;2.38;;
8909;SDS011;4490;49.072;8.804;2022-08-04T08:15:09;4.35;;;2.58;;
8909;SDS011;4490;49.072;8.804;2022-08-04T08:17:36;3.75;;;2.55;;
8909;SDS011;4490;49.072;8.804;2022-08-04T08:20:03;4.45;;;2.58;;
8909;SDS011;4490;49.072;8.804;2022-08-04T08:22:30;5.32;;;2.60;;
8909;SDS011;4490;49.072;8.804;2022-08-04T08:24:56;4.32;;;2.60;;
8909;SDS011;4490;49.072;8.804;2022-08-04T08:27:22;2.63;;;2.42;;
8909;SDS011;4490;49.072;8.804;2022-08-04T08:29:48;2.90;;;2.60;;
8909;SDS011;4490;49.072;8.804;2022-08-04T08:32:13;2.90;;;2.38;;
8909;SDS011;4490;49.072;8.804;2022-08-04T08:34:40;3.78;;;2.70;;
8909;SDS011;4490;49.072;8.804;2022-08-04T08:39:44;2.83;;;2.40;;
8909;SDS011;4490;49.072;8.804;2022-08-04T09:10:11;2.92;;;2.65;;
8909;SDS011;4490;49.072;8.804;2022-08-04T09:12:58;2.60;;;2.40;;
8909;SDS011;4490;49.072;8.804;2022-08-04T09:15:33;2.38;;;2.22;;
8909;SDS011;4490;49.072;8.804;2022-08-04T09:20:58;3.00;;;2.50;;
8909;SDS011;4490;49.072;8.804;2022-08-04T09:26:24;2.90;;;2.40;;
8909;SDS011;4490;49.072;8.804;2022-08-04T09:32:02;2.63;;;2.38;;
8909;SDS011;4490;49.072;8.804;2022-08-04T09:34:46;2.72;;;2.38;;
8909;SDS011;4490;49.072;8.804;2022-08-04T09:48:21;3.00;;;2.80;;
8909;SDS011;4490;49.072;8.804;2022-08-04T09:51:10;3.45;;;2.50;;
8909;SDS011;4490;49.072;8.804;2022-08-04T09:53:48;3.58;;;2.80;;
8909;SDS011;4490;49.072;8.804;2022-08-04T09:56:31;5.28;;;2.90;;
8909;SDS011;4490;49.072;8.804;2022-08-04T09:59:10;3.05;;;2.65;;
8909;SDS011;4490;49.072;8.804;2022-08-04T10:01:43;2.85;;;2.65;;
8909;SDS011;4490;49.072;8.804;2022-08-04T10:04:11;2.67;;;2.47;;
8909;SDS011;4490;49.072;8.804;2022-08-04T10:06:44;3.58;;;2.63;;
8909;SDS011;4490;49.072;8.804;2022-08-04T10:15:33;3.58;;;2.70;;
8909;SDS011;4490;49.072;8.804;2022-08-04T10:21:07;3.78;;;2.55;;
8909;SDS011;4490;49.072;8.804;2022-08-04T10:23:41;2.75;;;2.55;;
8909;SDS011;4490;49.072;8.804;2022-08-04T10:29:12;4.43;;;2.70;;
8909;SDS011;4490;49.072;8.804;2022-08-04T10:31:46;3.65;;;2.70;;
8909;SDS011;4490;49.072;8.804;2022-08-04T10:34:19;2.60;;;2.40;;
8909;SDS011;4490;49.072;8.804;2022-08-04T10:37:05;2.80;;;2.60;;
8909;SDS011;4490;49.072;8.804;2022-08-04T10:39:47;3.03;;;2.65;;
8909;SDS011;4490;49.072;8.804;2022-08-04T10:42:59;2.53;;;2.38;;
8909;SDS011;4490;49.072;8.804;2022-08-04T10:45:35;3.03;;;2.45;;
8909;SDS011;4490;49.072;8.804;2022-08-04T10:48:18;2.85;;;2.65;;
8909;SDS011;4490;49.072;8.804;2022-08-04T10:53:51;2.47;;;2.30;;
8909;SDS011;4490;49.072;8.804;2022-08-04T10:59:23;2.70;;;2.50;;
8909;SDS011;4490;49.072;8.804;2022-08-04T11:02:29;4.05;;;2.58;;
8909;SDS011;4490;49.072;8.804;2022-08-04T11:07:57;3.25;;;2.97;;
8909;SDS011;4490;49.072;8.804;2022-08-04T11:10:27;3.85;;;2.83;;
8909;SDS011;4490;49.072;8.804;2022-08-04T11:12:58;5.32;;;2.83;;
8909;SDS011;4490;49.072;8.804;2022-08-04T11:15:44;5.10;;;2.78;;
8909;SDS011;4490;49.072;8.804;2022-08-04T11:18:22;4.13;;;2.83;;
8909;SDS011;4490;49.072;8.804;2022-08-04T11:20:56;3.78;;;2.80;;
8909;SDS011;4490;49.072;8.804;2022-08-04T11:23:46;3.15;;;2.83;;
8909;SDS011;4490;49.072;8.804;2022-08-04T11:26:27;3.40;;;2.40;;
8909;SDS011;4490;49.072;8.804;2022-08-04T11:31:35;3.67;;;2.65;;
8909;SDS011;4490;49.072;8.804;2022-08-04T11:34:21;2.55;;;2.45;;
8909;SDS011;4490;49.072;8.804;2022-08-04T11:36:53;3.25;;;2.85;;
8909;SDS011;4490;49.072;8.804;2022-08-04T11:45:03;3.45;;;2.78;;
8909;SDS011;4490;49.072;8.804;2022-08-04T11:50:16;2.85;;;2.60;;
8909;SDS011;4490;49.072;8.804;2022-08-04T11:52:44;2.90;;;2.70;;
8909;SDS011;4490;49.072;8.804;2022-08-04T11:55:12;3.33;;;2.75;;
8909;SDS011;4490;49.072;8.804;2022-08-04T11:57:42;2.40;;;2.20;;
8909;SDS011;4490;49.072;8.804;2022-08-04T12:00:10;3.08;;;2.38;;
8909;SDS011;4490;49.072;8.804;2022-08-04T12:02:47;2.47;;;2.38;;
8909;SDS011;4490;49.072;8.804;2022-08-04T12:05:15;2.85;;;2.55;;
8909;SDS011;4490;49.072;8.804;2022-08-04T12:10:40;2.65;;;2.45;;
8909;SDS011;4490;49.072;8.804;2022-08-04T12:13:23;2.45;;;2.25;;
8909;SDS011;4490;49.072;8.804;2022-08-04T12:18:51;2.72;;;2.50;;
8909;SDS011;4490;49.072;8.804;2022-08-04T12:24:07;4.75;;;2.60;;
8909;SDS011;4490;49.072;8.804;2022-08-04T12:26:44;2.60;;;2.40;;
8909;SDS011;4490;49.072;8.804;2022-08-04T12:29:22;2.45;;;2.33;;
8909;SDS011;4490;49.072;8.804;2022-08-04T12:31:55;2.83;;;2.63;;
8909;SDS011;4490;49.072;8.804;2022-08-04T12:34:33;2.50;;;2.30;;
8909;SDS011;4490;49.072;8.804;2022-08-04T12:37:11;3.00;;;2.67;;
8909;SDS011;4490;49.072;8.804;2022-08-04T12:39:54;3.85;;;2.65;;
8909;SDS011;4490;49.072;8.804;2022-08-04T12:42:28;2.90;;;2.65;;
8909;SDS011;4490;49.072;8.804;2022-08-04T12:45:23;2.97;;;2.78;;
8909;SDS011;4490;49.072;8.804;2022-08-04T12:47:50;3.00;;;2.67;;
8909;SDS011;4490;49.072;8.804;2022-08-04T12:50:17;5.38;;;2.85;;
8909;SDS011;4490;49.072;8.804;2022-08-04T12:52:48;3.78;;;2.60;;
8909;SDS011;4490;49.072;8.804;2022-08-04T12:55:17;3.10;;;2.75;;
8909;SDS011;4490;49.072;8.804;2022-08-04T12:57:46;3.50;;;3.20;;
8909;SDS011;4490;49.072;8.804;2022-08-04T13:00:28;2.95;;;2.65;;
8909;SDS011;4490;49.072;8.804;2022-08-04T13:03:04;2.95;;;2.72;;
8909;SDS011;4490;49.072;8.804;2022-08-04T13:05:32;2.88;;;2.58;;
8909;SDS011;4490;49.072;8.804;2022-08-04T13:08:00;5.28;;;3.08;;
8909;SDS011;4490;49.072;8.804;2022-08-04T13:10:29;3.03;;;2.80;;
8909;SDS011;4490;49.072;8.804;2022-08-04T13:13:00;3.00;;;2.72;;
8909;SDS011;4490;49.072;8.804;2022-08-04T13:15:27;3.10;;;2.90;;
8909;SDS011;4490;49.072;8.804;2022-08-04T13:18:04;3.03;;;2.80;;
8909;SDS011;4490;49.072;8.804;2022-08-04T13:20:37;3.20;;;2.80;;
8909;SDS011;4490;49.072;8.804;2022-08-04T13:23:07;2.90;;;2.60;;
8909;SDS011;4490;49.072;8.804;2022-08-04T13:25:45;3.03;;;2.67;;
8909;SDS011;4490;49.072;8.804;2022-08-04T13:28:19;2.65;;;2.45;;
8909;SDS011;4490;49.072;8.804;2022-08-04T13:30:58;4.38;;;2.35;;
8909;SDS011;4490;49.072;8.804;2022-08-04T13:33:31;4.32;;;2.75;;
8909;SDS011;4490;49.072;8.804;2022-08-04T13:36:02;4.15;;;3.20;;
8909;SDS011;4490;49.072;8.804;2022-08-04T13:38:31;3.25;;;2.70;;
8909;SDS011;4490;49.072;8.804;2022-08-04T13:40:59;4.03;;;2.40;;
8909;SDS011;4490;49.072;8.804;2022-08-04T13:43:33;3.30;;;2.78;;
8909;SDS011;4490;49.072;8.804;2022-08-04T13:46:07;2.60;;;2.40;;
8909;SDS011;4490;49.072;8.804;2022-08-04T13:48:37;3.05;;;2.78;;
8909;SDS011;4490;49.072;8.804;2022-08-04T13:51:06;6.40;;;2.55;;
8909;SDS011;4490;49.072;8.804;2022-08-04T13:53:34;3.80;;;2.65;;
8909;SDS011;4490;49.072;8.804;2022-08-04T13:56:02;3.15;;;2.85;;
8909;SDS011;4490;49.072;8.804;2022-08-04T13:58:32;3.28;;;2.60;;
8909;SDS011;4490;49.072;8.804;2022-08-04T14:01:02;4.03;;;2.50;;
8909;SDS011;4490;49.072;8.804;2022-08-04T14:03:38;2.83;;;2.60;;
8909;SDS011;4490;49.072;8.804;2022-08-04T14:06:23;3.88;;;2.80;;
8909;SDS011;4490;49.072;8.804;2022-08-04T14:08:54;3.55;;;2.30;;
8909;SDS011;4490;49.072;8.804;2022-08-04T14:11:30;3.03;;;2.55;;
8909;SDS011;4490;49.072;8.804;2022-08-04T14:14:11;6.50;;;2.47;;
8909;SDS011;4490;49.072;8.804;2022-08-04T14:22:44;2.67;;;2.42;;
8909;SDS011;4490;49.072;8.804;2022-08-04T14:25:05;2.72;;;2.53;;
8909;SDS011;4490;49.072;8.804;2022-08-04T14:27:50;2.92;;;2.28;;
8909;SDS011;4490;49.072;8.804;2022-08-04T14:35:34;2.70;;;2.50;;
8909;SDS011;4490;49.072;8.804;2022-08-04T14:38:03;3.20;;;2.55;;
8909;SDS011;4490;49.072;8.804;2022-08-04T14:40:31;2.63;;;2.40;;
8909;SDS011;4490;49.072;8.804;2022-08-04T14:42:59;2.58;;;2.38;;
8909;SDS011;4490;49.072;8.804;2022-08-04T14:45:27;2.70;;;2.50;;
8909;SDS011;4490;49.072;8.804;2022-08-04T14:47:54;2.70;;;2.50;;
8909;SDS011;4490;49.072;8.804;2022-08-04T14:50:31;2.53;;;2.38;;
8909;SDS011;4490;49.072;8.804;2022-08-04T14:53:16;3.15;;;2.40;;
8909;SDS011;4490;49.072;8.804;2022-08-04T14:55:45;2.90;;;2.70;;
8909;SDS011;4490;49.072;8.804;2022-08-04T14:58:20;3.28;;;2.72;;
8909;SDS011;4490;49.072;8.804;2022-08-04T15:00:47;8.07;;;2.60;;
8909;SDS011;4490;49.072;8.804;2022-08-04T15:03:14;5.80;;;2.50;;
8909;SDS011;4490;49.072;8.804;2022-08-04T15:05:43;2.88;;;2.45;;
8909;SDS011;4490;49.072;8.804;2022-08-04T15:08:09;3.13;;;2.50;;
8909;SDS011;4490;49.072;8.804;2022-08-04T15:10:37;3.03;;;2.58;;
8909;SDS011;4490;49.072;8.804;2022-08-04T15:13:05;3.03;;;2.40;;
8909;SDS011;4490;49.072;8.804;2022-08-04T15:15:31;3.25;;;2.60;;
8909;SDS011;4490;49.072;8.804;2022-08-04T15:17:57;2.33;;;2.20;;
8909;SDS011;4490;49.072;8.804;2022-08-04T15:20:23;3.88;;;2.60;;
8909;SDS011;4490;49.072;8.804;2022-08-04T15:22:49;2.70;;;2.50;;
8909;SDS011;4490;49.072;8.804;2022-08-04T15:25:15;2.70;;;2.50;;
8909;SDS011;4490;49.072;8.804;2022-08-04T15:27:41;2.95;;;2.55;;
8909;SDS011;4490;49.072;8.804;2022-08-04T15:30:10;5.00;;;2.80;;
8909;SDS011;4490;49.072;8.804;2022-08-04T15:32:39;4.22;;;2.35;;
8909;SDS011;4490;49.072;8.804;2022-08-04T15:35:09;3.00;;;2.60;;
8909;SDS011;4490;49.072;8.804;2022-08-04T15:37:38;3.85;;;2.70;;
8909;SDS011;4490;49.072;8.804;2022-08-04T15:42:40;2.30;;;2.20;;
8909;SDS011;4490;49.072;8.804;2022-08-04T15:45:18;2.78;;;2.55;;
8909;SDS011;4490;49.072;8.804;2022-08-04T15:50:29;4.28;;;2.92;;
8909;SDS011;4490;49.072;8.804;2022-08-04T15:52:59;2.70;;;2.45;;
8909;SDS011;4490;49.072;8.804;2022-08-04T15:55:42;2.45;;;2.35;;
8909;SDS011;4490;49.072;8.804;2022-08-04T15:58:09;2.60;;;2.50;;
8909;SDS011;4490;49.072;8.804;2022-08-04T16:09:19;2.53;;;2.33;;
8909;SDS011;4490;49.072;8.804;2022-08-04T16:22:12;3.22;;;2.13;;
8909;SDS011;4490;49.072;8.804;2022-08-04T16:25:02;4.80;;;2.38;;
8909;SDS011;4490;49.072;8.804;2022-08-04T16:27:36;4.03;;;2.40;;
8909;SDS011;4490;49.072;8.804;2022-08-04T16:30:13;2.83;;;2.33;;
8909;SDS011;4490;49.072;8.804;2022-08-04T16:32:45;2.75;;;2.42;;
8909;SDS011;4490;49.072;8.804;2022-08-04T16:35:30;3.30;;;2.30;;
8909;SDS011;4490;49.072;8.804;2022-08-04T16:38:11;2.60;;;2.40;;
8909;SDS011;4490;49.072;8.804;2022-08-04T16:40:40;3.30;;;2.15;;
8909;SDS011;4490;49.072;8.804;2022-08-04T16:45:44;5.75;;;2.58;;
8909;SDS011;4490;49.072;8.804;2022-08-04T16:48:10;2.70;;;2.50;;
8909;SDS011;4490;49.072;8.804;2022-08-04T16:50:47;6.38;;;2.15;;
8909;SDS011;4490;49.072;8.804;2022-08-04T16:53:14;10.43;;;2.70;;
8909;SDS011;4490;49.072;8.804;2022-08-04T16:55:46;6.25;;;2.50;;
8909;SDS011;4490;49.072;8.804;2022-08-04T16:58:16;4.18;;;2.03;;
8909;SDS011;4490;49.072;8.804;2022-08-04T17:00:48;2.15;;;1.98;;
8909;SDS011;4490;49.072;8.804;2022-08-04T17:03:14;3.80;;;2.00;;
8909;SDS011;4490;49.072;8.804;2022-08-04T17:05:41;2.72;;;2.03;;
8909;SDS011;4490;49.072;8.804;2022-08-04T17:08:10;4.13;;;2.30;;
8909;SDS011;4490;49.072;8.804;2022-08-04T17:10:45;2.30;;;2.10;;
8909;SDS011;4490;49.072;8.804;2022-08-04T17:13:46;3.55;;;2.40;;
8909;SDS011;4490;49.072;8.804;2022-08-04T17:16:06;2.95;;;2.40;;
8909;SDS011;4490;49.072;8.804;2022-08-04T17:18:38;3.13;;;2.50;;
8909;SDS011;4490;49.072;8.804;2022-08-04T17:21:16;2.55;;;2.40;;
8909;SDS011;4490;49.072;8.804;2022-08-04T17:23:45;3.25;;;2.10;;
8909;SDS011;4490;49.072;8.804;2022-08-04T17:26:14;2.70;;;2.00;;
8909;SDS011;4490;49.072;8.804;2022-08-04T17:28:44;3.08;;;2.10;;
8909;SDS011;4490;49.072;8.804;2022-08-04T17:31:12;2.30;;;2.10;;
8909;SDS011;4490;49.072;8.804;2022-08-04T17:33:39;2.15;;;1.95;;
8909;SDS011;4490;49.072;8.804;2022-08-04T17:36:09;2.67;;;2.22;;
8909;SDS011;4490;49.072;8.804;2022-08-04T17:38:42;3.65;;;2.33;;
8909;SDS011;4490;49.072;8.804;2022-08-04T17:41:18;3.20;;;2.20;;
8909;SDS011;4490;49.072;8.804;2022-08-04T17:43:59;3.17;;;2.10;;
8909;SDS011;4490;49.072;8.804;2022-08-04T17:49:05;2.35;;;2.20;;
8909;SDS011;4490;49.072;8.804;2022-08-04T17:51:34;2.40;;;2.00;;
8909;SDS011;4490;49.072;8.804;2022-08-04T17:54:02;2.72;;;2.20;;
8909;SDS011;4490;49.072;8.804;2022-08-04T17:59:04;2.58;;;1.95;;
8909;SDS011;4490;49.072;8.804;2022-08-04T18:01:47;2.08;;;1.92;;
8909;SDS011;4490;49.072;8.804;2022-08-04T18:07:00;3.95;;;2.10;;
8909;SDS011;4490;49.072;8.804;2022-08-04T18:09:35;2.80;;;2.20;;
8909;SDS011;4490;49.072;8.804;2022-08-04T18:12:05;2.97;;;2.15;;
8909;SDS011;4490;49.072;8.804;2022-08-04T18:14:41;2.65;;;2.42;;
8909;SDS011;4490;49.072;8.804;2022-08-04T18:17:12;2.50;;;2.30;;
8909;SDS011;4490;49.072;8.804;2022-08-04T18:19:48;2.40;;;2.20;;
8909;SDS011;4490;49.072;8.804;2022-08-04T18:22:16;2.80;;;2.20;;
8909;SDS011;4490;49.072;8.804;2022-08-04T18:24:42;3.13;;;2.20;;
8909;SDS011;4490;49.072;8.804;2022-08-04T18:27:08;4.97;;;2.38;;
8909;SDS011;4490;49.072;8.804;2022-08-04T18:29:34;3.38;;;2.40;;
8909;SDS011;4490;49.072;8.804;2022-08-04T18:32:01;3.53;;;2.47;;
8909;SDS011;4490;49.072;8.804;2022-08-04T18:34:27;3.22;;;2.20;;
8909;SDS011;4490;49.072;8.804;2022-08-04T18:36:52;3.75;;;2.50;;
8909;SDS011;4490;49.072;8.804;2022-08-04T18:39:19;6.47;;;2.38;;
8909;SDS011;4490;49.072;8.804;2022-08-04T18:41:49;4.20;;;2.25;;
8909;SDS011;4490;49.072;8.804;2022-08-04T18:44:15;6.43;;;2.13;;
8909;SDS011;4490;49.072;8.804;2022-08-04T18:46:42;6.97;;;2.60;;
8909;SDS011;4490;49.072;8.804;2022-08-04T18:49:07;4.65;;;2.50;;
8909;SDS011;4490;49.072;8.804;2022-08-04T18:51:34;7.95;;;2.30;;
8909;SDS011;4490;49.072;8.804;2022-08-04T18:54:01;5.32;;;2.40;;
8909;SDS011;4490;49.072;8.804;2022-08-04T18:56:28;4.07;;;2.53;;
8909;SDS011;4490;49.072;8.804;2022-08-04T18:58:55;2.60;;;2.40;;
8909;SDS011;4490;49.072;8.804;2022-08-04T19:01:21;3.15;;;2.33;;
8909;SDS011;4490;49.072;8.804;2022-08-04T19:03:46;7.95;;;2.30;;
8909;SDS011;4490;49.072;8.804;2022-08-04T19:06:12;3.97;;;2.28;;
8909;SDS011;4490;49.072;8.804;2022-08-04T19:08:38;4.45;;;2.20;;
8909;SDS011;4490;49.072;8.804;2022-08-04T19:11:04;5.32;;;2.95;;
8909;SDS011;4490;49.072;8.804;2022-08-04T19:13:32;3.55;;;2.30;;
8909;SDS011;4490;49.072;8.804;2022-08-04T19:15:58;3.05;;;2.80;;
8909;SDS011;4490;49.072;8.804;2022-08-04T19:18:24;2.63;;;2.42;;
8909;SDS011;4490;49.072;8.804;2022-08-04T19:20:50;4.07;;;2.75;;
8909;SDS011;4490;49.072;8.804;2022-08-04T19:23:16;2.90;;;2.70;;
8909;SDS011;4490;49.072;8.804;2022-08-04T19:25:42;3.50;;;3.20;;
8909;SDS011;4490;49.072;8.804;2022-08-04T19:28:12;4.32;;;2.50;;
8909;SDS011;4490;49.072;8.804;2022-08-04T19:30:38;3.53;;;2.58;;
8909;SDS011;4490;49.072;8.804;2022-08-04T19:33:04;6.57;;;2.60;;
8909;SDS011;4490;49.072;8.804;2022-08-04T19:35:31;5.18;;;2.90;;
8909;SDS011;4490;49.072;8.804;2022-08-04T19:37:57;3.83;;;3.13;;
8909;SDS011;4490;49.072;8.804;2022-08-04T19:40:23;5.68;;;3.13;;
8909;SDS011;4490;49.072;8.804;2022-08-04T19:42:50;6.97;;;4.40;;
8909;SDS011;4490;49.072;8.804;2022-08-04T19:45:17;8.00;;;3.85;;
8909;SDS011;4490;49.072;8.804;2022-08-04T19:47:43;5.40;;;3.45;;
8909;SDS011;4490;49.072;8.804;2022-08-04T19:50:09;8.93;;;3.67;;
8909;SDS011;4490;49.072;8.804;2022-08-04T19:52:36;5.00;;;3.53;;
8909;SDS011;4490;49.072;8.804;2022-08-04T19:55:02;6.47;;;3.78;;
8909;SDS011;4490;49.072;8.804;2022-08-04T19:57:28;3.60;;;3.30;;
8909;SDS011;4490;49.072;8.804;2022-08-04T19:59:55;3.67;;;2.90;;
8909;SDS011;4490;49.072;8.804;2022-08-04T20:02:21;3.75;;;3.10;;
8909;SDS011;4490;49.072;8.804;2022-08-04T20:04:46;4.95;;;2.90;;
8909;SDS011;4490;49.072;8.804;2022-08-04T20:07:12;4.32;;;3.13;;
8909;SDS011;4490;49.072;8.804;2022-08-04T20:09:39;4.50;;;3.05;;
8909;SDS011;4490;49.072;8.804;2022-08-04T20:12:05;5.88;;;3.35;;
8909;SDS011;4490;49.072;8.804;2022-08-04T20:14:31;5.80;;;3.42;;
8909;SDS011;4490;49.072;8.804;2022-08-04T20:16:56;7.45;;;3.55;;
8909;SDS011;4490;49.072;8.804;2022-08-04T20:19:22;4.15;;;3.00;;
8909;SDS011;4490;49.072;8.804;2022-08-04T20:21:48;4.63;;;3.15;;